Hixson, TN (37343)

9:08 PM EDT on August 27, 2015 (GMT -0400)
Shannon Hills | | Change Station
CLOSE
Current Station
Personal Weather Station
Location: Middle Valley, TN
Elevation: 774 ft
Nearby Weather Stations

Elev 774 ft 35.18 °N, 85.22 °W | Updated 8 seconds ago

Partly Cloudy
Partly Cloudy
74.5 °F
Feels Like 76 °F
N
0.0
Wind Variable Wind from ESE
Gusts 0.0 mph

Today
High -- | Low -- °F
--% Chance of Precip.
Yesterday
High -- | Low -- °F
Precip. -- in
7:09 AM 8:14 PM
Waxing Gibbous, 96% visible
Pressure 30.04 in
Visibility 10.0 miles
Clouds Few 7000 ft
Scattered Clouds 8500 ft
Heat Index 76 °F
Dew Point 63 °F
Humidity 68%
Rainfall 0.00 in
Snow Depth Not available.
UV 0.0 out of 12
Pollen 8.80 out of 12
Air Quality Not available.
Flu Activity Not available.
METAR KCHA 280053Z 05004KT 10SM FEW070 SCT085 26/17 A3006 RMK AO2 SLP172 T02560167
Pressure 30.04 in
Visibility 10.0 miles
Clouds Few 7000 ft
Scattered Clouds 8500 ft
Heat Index 76 °F
Dew Point 63 °F
Humidity 68%
Rainfall 0.00 in
Snow Depth Not available.
UV 0.0 out of 12
Pollen 8.80 out of 12
Air Quality Not available.
Flu Activity Not available.
METAR KCHA 280053Z 05004KT 10SM FEW070 SCT085 26/17 A3006 RMK AO2 SLP172 T02560167

10-Day Weather Forecast

×

Almanac

Astronomy

Aug. 27, 2015 Rise Set
Actual Time
Civil Twilight
Nautical Twilight
Astronomical Twilight
Moon
Length of Visible Light
Length of Day
Tomorrow will be .
, % of the Moon is Illuminated

Today's Extremes

State Highs State Lows

Community

WunderPhotos

Upload Photos

1,850,288 photos uploaded!

WunderBlogs® & News

Nearby

Air Quality

  Air Quality AQ Index Pollutant
Not available.

Snow Depth

Station Depth Elevation

Earthquake Activity

City Distance Mag. Time & Date
Minimum magnitude displayed is 2.5.

Coastal Water Temperatures

Place Temperature

Stations

Nearby Weather Stations

Station Location Temp. Windchill Dew Point Humidity Wind Precip. Elev Updated Type